createdAt,value
2017-07-27T00:00:35.931Z,11.8
2017-07-27T00:01:16.931Z,11.6
2017-07-27T00:01:57.913Z,11.4
2017-07-27T00:02:38.798Z,11.4
2017-07-27T00:03:19.678Z,11.0
2017-07-27T00:04:00.371Z,12.2
2017-07-27T00:04:41.255Z,10.9
2017-07-27T00:05:22.036Z,15.5
2017-07-27T00:06:03.026Z,13.8
2017-07-27T00:06:43.818Z,11.3
2017-07-27T00:07:24.797Z,12.3
2017-07-27T00:08:05.683Z,11.7
2017-07-27T00:08:46.675Z,10.5
2017-07-27T00:09:27.763Z,10.2
2017-07-27T00:10:08.550Z,12.2
2017-07-27T00:10:49.635Z,10.7
2017-07-27T00:11:30.527Z,12.7
2017-07-27T00:12:11.409Z,11.9
2017-07-27T00:12:52.197Z,13.6
2017-07-27T00:13:33.289Z,12.3
2017-07-27T00:14:14.276Z,12.5
2017-07-27T00:14:55.163Z,10.3
2017-07-27T00:15:35.955Z,15.2
2017-07-27T00:16:16.837Z,16.7
2017-07-27T00:16:57.732Z,12.8
2017-07-27T00:17:38.621Z,11.8
2017-07-27T00:18:19.294Z,11.1
2017-07-27T00:19:00.375Z,13.1
2017-07-27T00:19:41.469Z,12.7
2017-07-27T00:20:22.352Z,11.9
2017-07-27T00:21:03.235Z,9.7
2017-07-27T00:21:44.022Z,13.3
2017-07-27T00:22:24.903Z,12.0
2017-07-27T00:23:05.905Z,14.2
2017-07-27T00:23:46.782Z,13.5
2017-07-27T00:24:27.666Z,15.9
2017-07-27T00:25:08.466Z,14.5
2017-07-27T00:25:49.160Z,14.5
2017-07-27T00:26:30.059Z,16.2
2017-07-27T00:27:11.057Z,17.5
2017-07-27T00:27:52.154Z,16.4
2017-07-27T00:28:33.538Z,16.5
2017-07-27T00:29:14.431Z,18.4
2017-07-27T00:29:55.523Z,20.7
2017-07-27T00:30:36.616Z,23.4
2017-07-27T00:31:17.604Z,19.4
2017-07-27T00:31:58.596Z,17.0
2017-07-27T00:32:39.478Z,16.7
2017-07-27T00:33:20.767Z,16.6
2017-07-27T00:34:01.760Z,18.2
2017-07-27T00:34:42.548Z,20.8
2017-07-27T00:35:23.940Z,16.3
2017-07-27T00:36:04.828Z,21.5
2017-07-27T00:36:45.720Z,19.7
2017-07-27T00:37:26.810Z,18.2
2017-07-27T00:38:07.989Z,21.8
2017-07-27T00:38:48.781Z,20.8
2017-07-27T00:39:29.668Z,19.0
2017-07-27T00:40:10.553Z,18.5
2017-07-27T00:40:51.451Z,16.7
2017-07-27T00:41:32.457Z,16.6
2017-07-27T00:42:13.354Z,19.0
2017-07-27T00:42:54.335Z,21.2
2017-07-27T00:43:35.323Z,23.3
2017-07-27T00:44:16.317Z,18.7
2017-07-27T00:44:57.306Z,22.3
2017-07-27T00:45:38.091Z,25.4
2017-07-27T00:46:19.075Z,22.4
2017-07-27T00:47:00.165Z,27.0
2017-07-27T00:47:41.050Z,27.0
2017-07-27T00:48:22.045Z,22.9
2017-07-27T00:49:03.140Z,22.4
2017-07-27T00:49:44.134Z,28.5
2017-07-27T00:50:25.425Z,27.8
2017-07-27T00:51:06.508Z,24.9
2017-07-27T00:51:47.398Z,23.5
2017-07-27T00:52:28.380Z,25.4
2017-07-27T00:53:09.474Z,23.0
2017-07-27T00:53:50.353Z,20.5
2017-07-27T00:54:31.140Z,23.9
2017-07-27T00:55:12.139Z,28.6
2017-07-27T00:55:52.929Z,28.5
2017-07-27T00:56:33.721Z,26.8
2017-07-27T00:57:14.610Z,29.2
2017-07-27T00:57:55.398Z,25.1
2017-07-27T00:58:36.384Z,25.9
2017-07-27T00:59:17.173Z,24.0
2017-07-27T00:59:57.959Z,27.9
2017-07-27T01:00:38.945Z,27.0
2017-07-27T01:01:19.933Z,31.4
2017-07-27T01:02:00.817Z,28.4
2017-07-27T01:02:41.610Z,28.5
2017-07-27T01:03:22.396Z,26.4
2017-07-27T01:04:03.487Z,24.2
2017-07-27T01:04:44.384Z,25.9
2017-07-27T01:05:25.269Z,25.8
2017-07-27T01:06:06.262Z,26.7
2017-07-27T01:06:47.249Z,30.0
2017-07-27T01:07:28.148Z,24.0
2017-07-27T01:08:09.227Z,27.8
2017-07-27T01:08:50.119Z,27.7
2017-07-27T01:09:31.305Z,28.1
2017-07-27T01:10:12.185Z,29.9
2017-07-27T01:10:53.074Z,28.3
2017-07-27T01:11:34.056Z,27.2
2017-07-27T01:12:14.943Z,28.7
2017-07-27T01:12:55.832Z,25.4
2017-07-27T01:13:36.918Z,25.3
2017-07-27T01:14:18.227Z,27.6
2017-07-27T01:14:59.105Z,30.5
2017-07-27T01:15:40.102Z,29.9
2017-07-27T01:16:21.195Z,32.4
2017-07-27T01:17:01.983Z,31.5
2017-07-27T01:17:42.967Z,27.1
2017-07-27T01:18:24.057Z,27.5
2017-07-27T01:19:08.023Z,28.4
2017-07-27T01:19:48.907Z,26.5
2017-07-27T01:20:29.704Z,28.1
2017-07-27T01:21:10.591Z,29.2
2017-07-27T01:21:51.673Z,32.9
2017-07-27T01:22:32.577Z,30.3
2017-07-27T01:23:13.794Z,26.9
2017-07-27T01:23:54.681Z,26.9
2017-07-27T01:24:35.561Z,27.9
2017-07-27T01:25:16.352Z,27.9
2017-07-27T01:25:57.446Z,31.1
2017-07-27T01:26:38.233Z,30.6
2017-07-27T01:27:19.219Z,31.5
2017-07-27T01:28:00.013Z,34.2
2017-07-27T01:28:41.099Z,29.9
2017-07-27T01:29:21.893Z,30.9
2017-07-27T01:30:02.783Z,30.1
2017-07-27T01:30:43.865Z,31.3
2017-07-27T01:31:24.858Z,29.2
2017-07-27T01:32:05.941Z,29.6
2017-07-27T01:32:46.827Z,32.6
2017-07-27T01:33:27.622Z,35.2
2017-07-27T01:34:08.606Z,34.1
2017-07-27T01:34:51.659Z,32.0
2017-07-27T01:35:32.855Z,33.8
2017-07-27T01:36:13.956Z,32.5
2017-07-27T01:36:55.035Z,30.5
2017-07-27T01:37:35.926Z,30.7
2017-07-27T01:38:16.707Z,36.1
2017-07-27T01:38:57.495Z,39.8
2017-07-27T01:39:38.487Z,41.0
2017-07-27T01:40:19.672Z,41.0
2017-07-27T01:41:00.858Z,37.7
2017-07-27T01:41:41.656Z,37.0
2017-07-27T01:42:22.541Z,39.7
2017-07-27T01:43:03.334Z,33.7
2017-07-27T01:43:44.120Z,35.1
2017-07-27T01:44:24.919Z,38.8
2017-07-27T01:45:05.803Z,41.9
2017-07-27T01:45:46.690Z,41.6
2017-07-27T01:46:27.875Z,37.9
2017-07-27T01:47:08.763Z,38.3
2017-07-27T01:47:49.858Z,39.6
2017-07-27T01:48:30.747Z,40.9
2017-07-27T01:49:11.842Z,41.9
2017-07-27T01:49:52.630Z,38.8
2017-07-27T01:50:33.518Z,38.2
2017-07-27T01:51:14.504Z,38.6
2017-07-27T01:51:55.591Z,38.9
2017-07-27T01:52:36.382Z,40.4
2017-07-27T01:53:17.378Z,37.0
2017-07-27T01:53:58.374Z,40.9
2017-07-27T01:54:39.462Z,41.7
2017-07-27T01:55:20.451Z,39.7
2017-07-27T01:56:01.239Z,45.3
2017-07-27T01:56:42.429Z,36.0
2017-07-27T01:57:23.314Z,36.7
2017-07-27T01:58:04.506Z,39.6
2017-07-27T01:58:45.491Z,40.0
2017-07-27T01:59:26.473Z,34.9
2017-07-27T02:00:07.359Z,35.7
2017-07-27T02:00:48.347Z,39.8
2017-07-27T02:01:29.436Z,39.3
2017-07-27T02:02:10.324Z,37.3
2017-07-27T02:02:52.315Z,36.7
2017-07-27T02:03:33.215Z,35.2
2017-07-27T02:04:14.205Z,37.2
2017-07-27T02:04:56.492Z,44.0
2017-07-27T02:05:37.280Z,40.4
2017-07-27T02:06:18.268Z,38.0
2017-07-27T02:06:59.251Z,39.9
2017-07-27T02:07:40.332Z,39.7
2017-07-27T02:08:21.419Z,42.5
2017-07-27T02:09:02.406Z,39.4
2017-07-27T02:09:43.305Z,38.2
2017-07-27T02:10:24.090Z,39.3
2017-07-27T02:11:04.978Z,43.4
2017-07-27T02:11:45.870Z,45.3
2017-07-27T02:12:26.859Z,49.6
2017-07-27T02:13:07.749Z,41.4
2017-07-27T02:13:49.231Z,47.4
2017-07-27T02:14:30.422Z,44.0
2017-07-27T02:15:11.207Z,43.7
2017-07-27T02:15:52.110Z,46.1
2017-07-27T02:16:33.203Z,51.4
2017-07-27T02:17:14.290Z,48.9
2017-07-27T02:17:55.296Z,39.6
2017-07-27T02:18:36.182Z,43.4
2017-07-27T02:19:17.176Z,48.3
2017-07-27T02:19:58.365Z,48.4
2017-07-27T02:20:39.351Z,45.9
2017-07-27T02:21:20.339Z,44.9
2017-07-27T02:22:01.231Z,44.2
2017-07-27T02:22:42.416Z,43.4
2017-07-27T02:23:23.206Z,41.5
2017-07-27T02:24:04.296Z,43.9
2017-07-27T02:24:45.185Z,48.3
2017-07-27T02:25:26.183Z,46.8
2017-07-27T02:26:07.077Z,47.6
2017-07-27T02:26:47.963Z,50.2
2017-07-27T02:27:28.863Z,47.3
2017-07-27T02:28:09.849Z,44.8
2017-07-27T02:28:50.632Z,42.6
2017-07-27T02:29:31.518Z,48.1
2017-07-27T02:30:12.307Z,47.1
2017-07-27T02:30:53.298Z,47.9
2017-07-27T02:31:34.191Z,57.3
2017-07-27T02:32:15.077Z,58.7
2017-07-27T02:32:55.991Z,50.2
2017-07-27T02:33:36.855Z,48.1
2017-07-27T02:34:17.855Z,46.0
2017-07-27T02:34:59.421Z,45.6
2017-07-27T02:35:40.318Z,47.2
2017-07-27T02:36:21.207Z,44.2
2017-07-27T02:37:02.097Z,45.1
2017-07-27T02:37:43.082Z,42.5
2017-07-27T02:38:23.864Z,44.9
2017-07-27T02:39:04.753Z,46.2
2017-07-27T02:39:45.643Z,46.0
2017-07-27T02:40:26.429Z,45.8
2017-07-27T02:41:07.114Z,43.2
2017-07-27T02:41:48.012Z,43.5
2017-07-27T02:42:28.987Z,44.0
2017-07-27T02:43:09.980Z,38.7
2017-07-27T02:43:51.073Z,40.8
2017-07-27T02:44:32.078Z,40.7
2017-07-27T02:45:12.852Z,41.8
2017-07-27T02:45:53.659Z,40.0
2017-07-27T02:46:34.953Z,41.9
2017-07-27T02:47:15.839Z,39.6
2017-07-27T02:47:56.730Z,38.9
2017-07-27T02:48:37.718Z,41.3
2017-07-27T02:49:18.614Z,37.6
2017-07-27T02:49:59.601Z,35.2
2017-07-27T02:50:40.587Z,31.3
2017-07-27T02:51:21.581Z,28.9
2017-07-27T02:52:02.358Z,30.7
2017-07-27T02:52:45.344Z,30.2
2017-07-27T02:53:26.434Z,32.2
2017-07-27T02:54:07.432Z,30.0
2017-07-27T02:54:49.925Z,31.8
2017-07-27T02:55:30.826Z,30.5
2017-07-27T02:56:11.611Z,33.0
2017-07-27T02:56:52.493Z,32.4
2017-07-27T02:57:33.377Z,29.1
2017-07-27T02:58:14.572Z,27.7
2017-07-27T02:58:55.560Z,28.4
2017-07-27T02:59:36.346Z,27.2
2017-07-27T03:00:17.326Z,29.0
2017-07-27T03:00:58.213Z,35.0
2017-07-27T03:01:39.089Z,31.5
2017-07-27T03:02:20.072Z,30.6
2017-07-27T03:03:01.063Z,29.6
2017-07-27T03:03:42.130Z,29.1
2017-07-27T03:04:22.919Z,26.4
2017-07-27T03:05:03.903Z,28.0
2017-07-27T03:05:44.909Z,27.9
2017-07-27T03:06:25.789Z,25.4
2017-07-27T03:07:06.789Z,27.5
2017-07-27T03:07:47.879Z,27.2
2017-07-27T03:08:28.763Z,27.0
2017-07-27T03:09:09.559Z,26.7
2017-07-27T03:09:50.344Z,29.5
2017-07-27T03:10:31.234Z,27.9
2017-07-27T03:11:12.218Z,28.9
2017-07-27T03:11:53.107Z,30.3
2017-07-27T03:12:33.994Z,29.8
2017-07-27T03:13:14.890Z,28.7
2017-07-27T03:13:55.875Z,28.5
2017-07-27T03:14:36.758Z,24.4
2017-07-27T03:15:17.660Z,25.7
2017-07-27T03:15:58.537Z,30.3
2017-07-27T03:16:39.530Z,30.6
2017-07-27T03:17:20.316Z,30.1
2017-07-27T03:18:01.411Z,31.2
2017-07-27T03:18:42.200Z,29.1
2017-07-27T03:19:23.186Z,27.7
2017-07-27T03:20:04.280Z,26.1
2017-07-27T03:20:45.268Z,25.8
2017-07-27T03:21:26.455Z,28.1
2017-07-27T03:22:07.245Z,26.1
2017-07-27T03:22:48.234Z,30.1
2017-07-27T03:23:29.322Z,27.5
2017-07-27T03:24:10.109Z,24.2
2017-07-27T03:24:51.004Z,24.6
2017-07-27T03:25:32.105Z,26.5
2017-07-27T03:26:12.900Z,25.9
2017-07-27T03:26:53.696Z,26.8
2017-07-27T03:27:34.594Z,27.1
2017-07-27T03:28:15.577Z,27.0
2017-07-27T03:28:56.459Z,28.5
2017-07-27T03:29:37.254Z,30.3
2017-07-27T03:30:18.028Z,25.7
2017-07-27T03:30:58.918Z,28.3
2017-07-27T03:31:39.802Z,33.1
2017-07-27T03:32:21.595Z,34.3
2017-07-27T03:33:02.484Z,31.2
2017-07-27T03:33:43.372Z,34.0
2017-07-27T03:34:24.466Z,32.1
2017-07-27T03:35:05.249Z,31.0
2017-07-27T03:35:46.144Z,32.4
2017-07-27T03:36:26.933Z,34.4
2017-07-27T03:37:08.026Z,31.7
2017-07-27T03:37:49.005Z,34.5
2017-07-27T03:38:30.101Z,36.6
2017-07-27T03:39:10.997Z,32.3
2017-07-27T03:39:51.977Z,31.7
2017-07-27T03:40:32.972Z,31.0
2017-07-27T03:41:13.965Z,35.3
2017-07-27T03:41:54.754Z,33.1
2017-07-27T03:42:35.744Z,32.5
2017-07-27T03:43:16.529Z,35.1
2017-07-27T03:43:57.635Z,32.0
2017-07-27T03:44:38.612Z,32.2
2017-07-27T03:45:19.414Z,34.4
2017-07-27T03:46:00.398Z,35.4
2017-07-27T03:46:41.277Z,36.3
2017-07-27T03:47:22.273Z,33.5
2017-07-27T03:48:03.367Z,34.9
2017-07-27T03:48:44.262Z,33.9
2017-07-27T03:49:25.245Z,35.8
2017-07-27T03:50:06.135Z,32.9
2017-07-27T03:50:47.117Z,34.8
2017-07-27T03:51:28.107Z,33.6
2017-07-27T03:52:09.091Z,32.6
2017-07-27T03:52:49.974Z,34.4
2017-07-27T03:53:30.767Z,30.5
2017-07-27T03:54:11.647Z,30.4
2017-07-27T03:54:52.638Z,30.6
2017-07-27T03:55:33.524Z,32.8
2017-07-27T03:56:14.418Z,34.1
2017-07-27T03:56:55.315Z,33.9
2017-07-27T03:57:36.200Z,31.4
2017-07-27T03:58:17.196Z,30.4
2017-07-27T03:58:58.083Z,32.3
2017-07-27T03:59:39.172Z,33.1
2017-07-27T04:00:20.056Z,29.1
2017-07-27T04:01:01.146Z,28.7
2017-07-27T04:01:42.135Z,29.4
2017-07-27T04:02:23.020Z,27.6
2017-07-27T04:03:04.011Z,29.0
2017-07-27T04:03:44.798Z,30.5
2017-07-27T04:04:25.593Z,32.2
2017-07-27T04:05:06.385Z,31.1
2017-07-27T04:05:47.387Z,32.7
2017-07-27T04:06:28.075Z,33.0
2017-07-27T04:07:09.059Z,29.1
2017-07-27T04:07:49.958Z,28.5
2017-07-27T04:08:31.043Z,31.9
2017-07-27T04:09:11.941Z,28.9
2017-07-27T04:09:52.724Z,28.5
2017-07-27T04:10:33.718Z,28.0
2017-07-27T04:11:14.712Z,25.6
2017-07-27T04:11:55.798Z,27.3
2017-07-27T04:12:36.595Z,29.9
2017-07-27T04:13:17.386Z,29.6
2017-07-27T04:13:58.280Z,32.1
2017-07-27T04:14:39.280Z,30.6
2017-07-27T04:15:20.079Z,28.5
2017-07-27T04:16:00.893Z,28.5
2017-07-27T04:16:41.856Z,28.5
2017-07-27T04:17:22.854Z,28.1
2017-07-27T04:18:03.734Z,30.0
2017-07-27T04:18:44.835Z,29.8
2017-07-27T04:19:25.814Z,26.4
2017-07-27T04:20:06.606Z,29.3
2017-07-27T04:20:47.699Z,27.7
2017-07-27T04:21:28.692Z,31.5
2017-07-27T04:22:09.591Z,30.2
2017-07-27T04:22:50.778Z,28.8
2017-07-27T04:23:31.768Z,31.3
2017-07-27T04:24:12.756Z,27.6
2017-07-27T04:24:53.646Z,32.5
2017-07-27T04:25:34.840Z,32.6
2017-07-27T04:26:15.833Z,30.1
2017-07-27T04:26:56.726Z,29.3
2017-07-27T04:27:37.808Z,33.7
2017-07-27T04:28:18.698Z,38.9
2017-07-27T04:28:59.687Z,34.8
2017-07-27T04:29:40.680Z,34.7
2017-07-27T04:30:21.769Z,28.5
2017-07-27T04:31:03.064Z,32.4
2017-07-27T04:31:44.053Z,31.9
2017-07-27T04:32:25.041Z,33.3
2017-07-27T04:33:06.034Z,32.2
2017-07-27T04:33:47.522Z,31.2
2017-07-27T04:34:28.615Z,34.5
2017-07-27T04:35:09.614Z,33.2
2017-07-27T04:35:50.508Z,34.7
2017-07-27T04:36:31.402Z,32.4
2017-07-27T04:37:12.196Z,31.5
2017-07-27T04:37:53.093Z,34.8
2017-07-27T04:38:34.004Z,34.2
2017-07-27T04:39:15.281Z,35.9
2017-07-27T04:39:56.376Z,32.2
2017-07-27T04:40:37.267Z,31.8
2017-07-27T04:41:18.262Z,31.5
2017-07-27T04:41:59.347Z,33.9
2017-07-27T04:42:42.443Z,34.0
2017-07-27T04:43:23.435Z,31.4
2017-07-27T04:44:04.422Z,35.3
2017-07-27T04:44:45.321Z,32.1
2017-07-27T04:45:26.413Z,30.4
2017-07-27T04:46:07.411Z,31.1
2017-07-27T04:46:48.301Z,31.7
2017-07-27T04:47:29.190Z,30.2
2017-07-27T04:48:10.274Z,29.4
2017-07-27T04:48:51.570Z,29.9
2017-07-27T04:49:32.661Z,32.3
2017-07-27T04:50:13.447Z,30.2
2017-07-27T04:50:54.435Z,31.4
2017-07-27T04:51:35.336Z,34.2
2017-07-27T04:52:16.130Z,32.7
2017-07-27T04:52:57.119Z,31.0
2017-07-27T04:53:38.114Z,30.1
2017-07-27T04:54:19.008Z,31.1
2017-07-27T04:54:59.994Z,29.9
2017-07-27T04:55:40.892Z,32.1
2017-07-27T04:56:21.780Z,31.0
2017-07-27T04:57:02.866Z,28.4
2017-07-27T04:57:43.959Z,31.0
2017-07-27T04:58:24.957Z,30.3
2017-07-27T04:59:06.041Z,30.6
2017-07-27T04:59:47.038Z,31.8
2017-07-27T05:00:28.033Z,32.0
2017-07-27T05:01:09.127Z,30.9
2017-07-27T05:01:50.316Z,30.2
2017-07-27T05:02:31.214Z,32.1
2017-07-27T05:03:12.406Z,31.5
2017-07-27T05:03:53.504Z,30.6
2017-07-27T05:04:34.487Z,31.2
2017-07-27T05:05:15.487Z,29.2
2017-07-27T05:05:56.378Z,31.1
2017-07-27T05:06:37.369Z,31.7
2017-07-27T05:07:18.357Z,30.6
2017-07-27T05:07:59.450Z,30.5
2017-07-27T05:08:40.449Z,34.2
2017-07-27T05:09:21.436Z,30.0
2017-07-27T05:10:02.432Z,29.7
2017-07-27T05:10:43.418Z,34.1
2017-07-27T05:11:24.507Z,29.0
2017-07-27T05:12:05.590Z,26.9
2017-07-27T05:12:46.888Z,28.3
2017-07-27T05:13:27.985Z,31.2
2017-07-27T05:14:08.873Z,29.0
2017-07-27T05:14:49.866Z,25.7
2017-07-27T05:15:31.053Z,27.0
2017-07-27T05:16:12.044Z,31.0
2017-07-27T05:16:53.035Z,28.4
2017-07-27T05:17:34.117Z,25.6
2017-07-27T05:18:15.116Z,28.4
2017-07-27T05:18:56.004Z,27.1
2017-07-27T05:19:36.897Z,26.2
2017-07-27T05:20:18.086Z,27.7
2017-07-27T05:20:59.083Z,26.4
2017-07-27T05:21:40.075Z,25.7
2017-07-27T05:22:20.967Z,26.6
2017-07-27T05:23:02.066Z,27.2
2017-07-27T05:23:43.468Z,26.7
2017-07-27T05:24:24.451Z,25.8
2017-07-27T05:25:05.449Z,27.1
2017-07-27T05:25:46.344Z,28.2
2017-07-27T05:26:27.231Z,24.8
2017-07-27T05:27:08.025Z,26.4
2017-07-27T05:27:49.117Z,26.4
2017-07-27T05:28:30.115Z,26.3
2017-07-27T05:29:11.012Z,29.1
2017-07-27T05:29:51.908Z,28.4
2017-07-27T05:30:32.802Z,28.6
2017-07-27T05:31:13.598Z,28.9
2017-07-27T05:31:54.584Z,28.7
2017-07-27T05:32:35.485Z,26.7
2017-07-27T05:33:16.574Z,26.5
2017-07-27T05:33:57.660Z,26.6
2017-07-27T05:34:38.653Z,32.5
2017-07-27T05:35:19.651Z,31.1
2017-07-27T05:36:00.445Z,27.3
2017-07-27T05:36:41.763Z,26.6
2017-07-27T05:37:23.329Z,31.5
2017-07-27T05:38:04.326Z,28.7
2017-07-27T05:38:45.227Z,29.1
2017-07-27T05:39:26.308Z,25.9
2017-07-27T05:40:07.399Z,28.8
2017-07-27T05:40:48.294Z,25.4
2017-07-27T05:41:29.487Z,26.5
2017-07-27T05:42:10.684Z,26.4
2017-07-27T05:42:51.585Z,28.8
2017-07-27T05:43:32.477Z,27.5
2017-07-27T05:44:13.981Z,28.9
2017-07-27T05:44:56.657Z,24.2
2017-07-27T05:45:37.762Z,24.8
2017-07-27T05:46:18.633Z,24.9
2017-07-27T05:46:59.624Z,25.3
2017-07-27T05:47:40.518Z,27.6
2017-07-27T05:48:21.617Z,25.7
2017-07-27T05:49:02.507Z,20.8
2017-07-27T05:49:43.503Z,21.6
2017-07-27T05:50:24.491Z,21.0
2017-07-27T05:51:05.287Z,24.0
2017-07-27T05:51:46.311Z,22.6
2017-07-27T05:52:27.181Z,25.6
2017-07-27T05:53:08.105Z,22.3
2017-07-27T05:53:48.984Z,25.8
2017-07-27T05:54:29.985Z,24.2
2017-07-27T05:55:10.984Z,21.7
2017-07-27T05:55:52.174Z,21.9
2017-07-27T05:56:33.060Z,21.0
2017-07-27T05:57:13.953Z,22.2
2017-07-27T05:57:55.057Z,18.8
2017-07-27T05:58:35.943Z,18.9
2017-07-27T05:59:16.871Z,18.1
2017-07-27T05:59:57.861Z,19.1
2017-07-27T06:00:38.853Z,19.0
2017-07-27T06:01:19.853Z,20.1
2017-07-27T06:02:00.938Z,17.8
2017-07-27T06:02:42.037Z,16.2
2017-07-27T06:03:23.025Z,17.2
2017-07-27T06:04:04.020Z,16.2
2017-07-27T06:04:45.111Z,16.3
2017-07-27T06:05:26.111Z,16.8
2017-07-27T06:06:07.208Z,15.8
2017-07-27T06:06:48.202Z,17.7
2017-07-27T06:07:29.197Z,18.4
2017-07-27T06:08:10.093Z,18.6
2017-07-27T06:08:51.212Z,19.9
2017-07-27T06:09:32.987Z,21.1
2017-07-27T06:10:14.075Z,21.5
2017-07-27T06:10:55.069Z,17.2
2017-07-27T06:11:36.164Z,20.5
2017-07-27T06:12:17.265Z,17.5
2017-07-27T06:12:58.558Z,14.7
2017-07-27T06:13:39.458Z,16.3
2017-07-27T06:14:20.552Z,18.9
2017-07-27T06:15:01.544Z,18.5
2017-07-27T06:15:42.546Z,17.9
2017-07-27T06:16:23.440Z,17.7
2017-07-27T06:17:04.339Z,19.6
2017-07-27T06:17:45.330Z,20.5
2017-07-27T06:18:26.527Z,18.2
2017-07-27T06:19:07.416Z,14.7
2017-07-27T06:19:48.309Z,18.0
2017-07-27T06:20:29.404Z,16.7
2017-07-27T06:21:10.497Z,19.6
2017-07-27T06:21:51.492Z,17.5
2017-07-27T06:22:32.490Z,15.2
2017-07-27T06:23:13.505Z,16.8
2017-07-27T06:23:54.701Z,16.9
2017-07-27T06:24:35.901Z,16.9
2017-07-27T06:25:16.895Z,19.3
2017-07-27T06:25:57.789Z,16.6
2017-07-27T06:26:38.796Z,16.5
2017-07-27T06:27:19.787Z,16.8
2017-07-27T06:28:00.886Z,14.9
2017-07-27T06:28:41.978Z,14.4
2017-07-27T06:29:23.276Z,13.9
2017-07-27T06:30:04.371Z,16.3
2017-07-27T06:30:45.268Z,13.8
2017-07-27T06:31:26.361Z,12.8
2017-07-27T06:32:07.459Z,17.7
2017-07-27T06:32:48.856Z,17.7
2017-07-27T06:33:29.762Z,14.5
2017-07-27T06:34:10.762Z,16.0
2017-07-27T06:34:51.761Z,13.7
2017-07-27T06:35:32.951Z,16.3
2017-07-27T06:36:14.054Z,14.2
2017-07-27T06:36:55.044Z,13.1
2017-07-27T06:37:36.744Z,14.7
2017-07-27T06:38:17.645Z,14.8
2017-07-27T06:38:58.643Z,13.6
2017-07-27T06:39:39.549Z,12.5
2017-07-27T06:40:20.547Z,15.5
2017-07-27T06:41:01.540Z,17.1
2017-07-27T06:41:42.635Z,17.3
2017-07-27T06:42:23.529Z,15.5
2017-07-27T06:43:04.544Z,15.7
2017-07-27T06:43:45.638Z,16.0
2017-07-27T06:44:26.532Z,17.5
2017-07-27T06:45:07.524Z,14.8
2017-07-27T06:45:48.621Z,15.0
2017-07-27T06:46:29.723Z,13.2
2017-07-27T06:47:10.725Z,16.6
2017-07-27T06:47:51.821Z,14.1
2017-07-27T06:48:32.817Z,11.1
2017-07-27T06:49:13.808Z,12.3
2017-07-27T06:49:54.821Z,16.8
2017-07-27T06:50:35.935Z,10.5
2017-07-27T06:51:16.935Z,10.4
2017-07-27T06:51:58.035Z,11.5
2017-07-27T06:52:39.125Z,12.2
2017-07-27T06:53:20.126Z,11.6
2017-07-27T06:54:01.124Z,12.4
2017-07-27T06:54:42.218Z,11.3
2017-07-27T06:55:23.307Z,10.3
2017-07-27T06:56:04.291Z,11.2
2017-07-27T06:56:45.389Z,11.3
2017-07-27T06:57:26.283Z,11.4
2017-07-27T06:58:07.484Z,11.0
2017-07-27T06:58:48.581Z,12.0
2017-07-27T06:59:29.579Z,13.2
2017-07-27T07:00:10.583Z,15.8
2017-07-27T07:00:52.079Z,12.0
2017-07-27T07:01:33.271Z,11.2
2017-07-27T07:02:14.373Z,13.7
2017-07-27T07:02:55.570Z,13.8
2017-07-27T07:03:36.874Z,11.1
2017-07-27T07:04:17.874Z,11.0
2017-07-27T07:04:58.868Z,11.4
2017-07-27T07:05:39.867Z,11.2
2017-07-27T07:06:20.760Z,12.1
2017-07-27T07:07:01.652Z,13.1
2017-07-27T07:07:42.745Z,11.5
2017-07-27T07:08:23.744Z,10.7
2017-07-27T07:09:04.741Z,11.6
2017-07-27T07:09:45.941Z,16.7
2017-07-27T07:10:27.054Z,13.5
2017-07-27T07:11:11.139Z,13.1
2017-07-27T07:11:52.136Z,15.7
2017-07-27T07:12:33.232Z,12.8
2017-07-27T07:13:14.326Z,11.7
2017-07-27T07:13:55.375Z,11.2
2017-07-27T07:14:36.763Z,11.3
2017-07-27T07:15:17.956Z,13.3
2017-07-27T07:15:58.857Z,11.7
2017-07-27T07:16:39.760Z,12.8
2017-07-27T07:17:20.651Z,10.8
2017-07-27T07:18:01.649Z,10.6
2017-07-27T07:18:42.942Z,10.8
2017-07-27T07:19:24.038Z,10.2
2017-07-27T07:20:05.127Z,10.5
2017-07-27T07:20:46.320Z,12.0
2017-07-27T07:21:27.416Z,11.5
2017-07-27T07:22:08.504Z,9.4
2017-07-27T07:22:49.403Z,10.9
2017-07-27T07:23:30.292Z,11.0
2017-07-27T07:24:11.394Z,11.5
2017-07-27T07:24:53.077Z,10.7
2017-07-27T07:25:34.074Z,10.4
2017-07-27T07:26:15.178Z,10.9
2017-07-27T07:26:56.271Z,10.8
2017-07-27T07:27:37.266Z,10.8
2017-07-27T07:28:18.060Z,10.3
2017-07-27T07:28:59.368Z,11.7
2017-07-27T07:29:40.468Z,11.4
2017-07-27T07:30:21.564Z,11.0
2017-07-27T07:31:02.462Z,11.8
2017-07-27T07:31:43.459Z,10.4
2017-07-27T07:32:24.554Z,13.6
2017-07-27T07:33:05.745Z,10.3
2017-07-27T07:33:46.739Z,12.5
2017-07-27T07:34:27.729Z,14.4
2017-07-27T07:35:08.726Z,12.8
2017-07-27T07:35:50.719Z,11.1
2017-07-27T07:36:31.831Z,10.3
2017-07-27T07:37:12.828Z,9.1
2017-07-27T07:37:54.121Z,10.1
2017-07-27T07:38:35.335Z,11.1
2017-07-27T07:39:16.341Z,11.8
2017-07-27T07:39:57.235Z,10.8
2017-07-27T07:40:38.324Z,11.6
2017-07-27T07:41:19.425Z,12.4
2017-07-27T07:42:00.514Z,12.7
2017-07-27T07:42:41.510Z,9.9
2017-07-27T07:43:22.405Z,10.5
2017-07-27T07:44:03.301Z,10.5
2017-07-27T07:44:44.306Z,10.0
2017-07-27T07:45:25.407Z,10.2
2017-07-27T07:46:07.512Z,10.9
2017-07-27T07:46:49.179Z,11.0
2017-07-27T07:47:31.639Z,13.3
2017-07-27T07:48:14.049Z,12.6
2017-07-27T07:48:56.892Z,10.0
2017-07-27T07:49:39.081Z,11.8
2017-07-27T07:50:21.239Z,11.2
2017-07-27T07:51:04.700Z,10.4
2017-07-27T07:51:46.540Z,10.1
2017-07-27T07:52:27.732Z,10.1
2017-07-27T07:53:08.730Z,9.7
2017-07-27T07:53:50.036Z,9.3
2017-07-27T07:54:31.131Z,8.9
2017-07-27T07:55:12.229Z,9.7
2017-07-27T07:55:53.218Z,11.4
2017-07-27T07:56:34.118Z,10.6
2017-07-27T07:57:15.118Z,10.6
2017-07-27T07:57:57.048Z,9.6
2017-07-27T07:58:38.050Z,10.6
2017-07-27T07:59:19.821Z,8.4
2017-07-27T08:00:00.924Z,7.8
2017-07-27T08:00:42.016Z,9.3
2017-07-27T08:01:25.617Z,8.6
2017-07-27T08:02:06.718Z,9.7
2017-07-27T08:02:48.553Z,8.1
2017-07-27T08:03:29.560Z,7.0
2017-07-27T08:04:10.658Z,9.1
2017-07-27T08:04:51.750Z,10.1
2017-07-27T08:05:32.647Z,9.6
2017-07-27T08:06:13.547Z,10.5
2017-07-27T08:06:55.830Z,8.6
2017-07-27T08:07:37.361Z,9.0
2017-07-27T08:08:18.806Z,10.6
2017-07-27T08:08:59.803Z,9.6
2017-07-27T08:09:40.595Z,10.5
2017-07-27T08:10:21.695Z,11.6
2017-07-27T08:11:02.794Z,10.6
2017-07-27T08:11:43.691Z,8.3
2017-07-27T08:12:24.588Z,7.9
2017-07-27T08:13:05.686Z,6.8
2017-07-27T08:13:46.587Z,8.3
2017-07-27T08:14:27.584Z,8.9
2017-07-27T08:15:08.902Z,7.8
2017-07-27T08:15:49.906Z,10.1
2017-07-27T08:16:30.896Z,8.7
2017-07-27T08:17:12.732Z,8.6
2017-07-27T08:17:56.240Z,7.8
2017-07-27T08:18:37.146Z,7.5
2017-07-27T08:19:20.042Z,10.3
2017-07-27T08:20:01.240Z,8.8
2017-07-27T08:20:42.236Z,7.7
2017-07-27T08:21:23.241Z,8.0
2017-07-27T08:22:05.832Z,9.1
2017-07-27T08:22:47.026Z,11.5
2017-07-27T08:23:28.223Z,8.8
2017-07-27T08:24:09.333Z,8.6
2017-07-27T08:24:54.405Z,9.6
2017-07-27T08:25:35.198Z,10.1
2017-07-27T08:26:16.097Z,10.4
2017-07-27T08:26:57.637Z,8.8
2017-07-27T08:27:38.636Z,8.0
2017-07-27T08:28:19.832Z,10.8
2017-07-27T08:29:02.694Z,9.0
2017-07-27T08:29:43.804Z,10.0
2017-07-27T08:30:24.898Z,7.8
2017-07-27T08:31:05.900Z,10.0
2017-07-27T08:31:47.211Z,10.9
2017-07-27T08:32:28.300Z,10.3
2017-07-27T08:33:09.307Z,9.5
2017-07-27T08:33:50.303Z,8.0
2017-07-27T08:34:31.435Z,8.0
2017-07-27T08:35:12.335Z,7.4
2017-07-27T08:35:53.331Z,7.8
2017-07-27T08:36:34.528Z,6.8
2017-07-27T08:37:15.632Z,7.7
2017-07-27T08:37:56.532Z,7.0
2017-07-27T08:38:37.534Z,6.5
2017-07-27T08:39:18.434Z,7.7
2017-07-27T08:39:59.637Z,6.6
2017-07-27T08:40:40.531Z,8.6
2017-07-27T08:41:24.009Z,8.7
2017-07-27T08:42:05.216Z,7.6
2017-07-27T08:42:46.211Z,8.3
2017-07-27T08:43:27.215Z,8.0
2017-07-27T08:44:08.317Z,7.2
2017-07-27T08:44:50.299Z,8.4
2017-07-27T08:45:31.299Z,9.2
2017-07-27T08:46:12.492Z,8.4
2017-07-27T08:46:53.527Z,10.5
2017-07-27T08:47:34.525Z,7.9
2017-07-27T08:48:15.618Z,6.4
2017-07-27T08:48:58.083Z,6.7
2017-07-27T08:49:39.185Z,7.4
2017-07-27T08:50:20.185Z,7.9
2017-07-27T08:51:01.199Z,15.7
2017-07-27T08:51:44.538Z,19.6
2017-07-27T08:52:25.842Z,25.2
2017-07-27T08:53:07.052Z,27.2
2017-07-27T08:53:48.657Z,16.7
2017-07-27T08:54:29.857Z,12.5
2017-07-27T08:55:10.881Z,13.4
2017-07-27T08:55:51.977Z,16.0
2017-07-27T08:56:33.868Z,12.8
2017-07-27T08:57:14.769Z,12.6
2017-07-27T08:57:56.691Z,10.6
2017-07-27T08:58:37.700Z,14.3
2017-07-27T08:59:18.605Z,14.9
2017-07-27T08:59:59.696Z,11.1
2017-07-27T09:00:40.601Z,12.1
2017-07-27T09:01:21.592Z,9.9
2017-07-27T09:02:02.490Z,12.2
2017-07-27T09:02:43.485Z,13.5
2017-07-27T09:03:24.483Z,13.3
2017-07-27T09:04:05.483Z,10.9
2017-07-27T09:04:46.379Z,10.9
2017-07-27T09:05:27.273Z,9.7
2017-07-27T09:06:08.169Z,11.8
2017-07-27T09:06:49.172Z,14.1
2017-07-27T09:07:30.066Z,14.4
2017-07-27T09:08:10.768Z,13.1